FBSK/GBE METAR and TAF weather

Enter ICAO airport designator
Station Type Date Time Source
FBSK METAR 2018/06/25 02:00 UTC NOAA

FBSK 250200Z 25003KT 230V290 CAVOK 04/01 Q1024 NOSIG


Station Type Date Time Source
FBSK Decoded METAR 2018/06/25 02:00 UTC NOAA

Seretse Khama International Airport, Botswana (FBSK) 24-13S 025-55E 1005M
Jun 24, 2018 - 10:00 PM EDT / 2018.06.25 0200 UTC
Wind: from the WSW (250 degrees) at 3 MPH (3 KT) (direction variable):0
Visibility: greater than 7 mile(s):0
Temperature: 39 F (4 C)
Dew Point: 33 F (1 C)
Relative Humidity: 80%
Pressure (altimeter): 30.24 in. Hg (1024 hPa)
ob: FBSK 250200Z 25003KT 230V290 CAVOK 04/01 Q1024 NOSIG
cycle: 2

Station Type Date Time Source
FBSK TAF 2018/06/24 18:03 UTC NOAA

TAF FBSK 241500Z 2418/2524 04007KT CAVOK


Example: see airport list